Time;durP1;ratioP1;P1;durP2;ratioP2;P2;SDS_P1;SDS_P2;PMS_P1;PMS_P2;Temp;Humidity;BMP_temperature;BMP_pressure;BME280_temperature;BME280_humidity;BME280_pressure;Samples;Min_cycle;Max_cycle;Signal;HPM_P1;HPM_P2
2022/05/20 00:00:57;;;;;;;4.63;2.13;;;;;;;11.77;65.46;99206.41;5030979;28;20076;-77
2022/05/20 00:03:23;;;;;;;;;;;;;;;11.77;65.92;99208.16;5015070;28;20041;-77
2022/05/20 00:05:49;;;;;;;3.47;2.08;;;;;;;11.60;65.06;99204.09;5023793;28;19920;-77
2022/05/20 00:08:14;;;;;;;;;;;;;;;11.57;65.54;99204.13;4995701;28;20520;-77
2022/05/20 00:10:40;;;;;;;3.65;1.85;;;;;;;11.61;66.13;99211.00;5022774;28;19913;-76
2022/05/20 00:13:06;;;;;;;;;;;;;;;11.59;66.52;99207.56;5032871;28;20037;-77
2022/05/20 00:15:31;;;;;;;3.38;2.08;;;;;;;11.70;65.74;99203.06;5032459;28;19959;-76
2022/05/20 00:17:57;;;;;;;;;;;;;;;11.82;65.00;99209.84;5032935;28;20132;-77
2022/05/20 00:20:24;;;;;;;4.53;1.80;;;;;;;11.69;64.66;99208.28;5032237;28;19919;-76
2022/05/20 00:22:49;;;;;;;4.43;1.80;;;;;;;11.56;64.55;99212.81;5014617;28;20496;-76
2022/05/20 00:28:00;;;;;;;3.47;1.70;;;;;;;11.47;65.32;99212.94;5032096;28;20422;-77
2022/05/20 00:30:25;;;;;;;;;;;;;;;11.51;65.82;99219.81;5032459;28;20037;-78
2022/05/20 00:32:52;;;;;;;4.47;1.83;;;;;;;11.26;65.80;99218.44;5011167;28;19968;-76
2022/05/20 00:35:18;;;;;;;3.83;2.08;;;;;;;11.10;66.73;99215.22;5025907;28;20041;-78
2022/05/20 00:37:44;;;;;;;;;;;;;;;11.34;66.36;99217.47;5031267;28;20037;-77
2022/05/20 00:40:10;;;;;;;2.67;1.50;;;;;;;11.18;65.03;99221.16;5033038;28;19932;-78
2022/05/20 00:42:36;;;;;;;3.17;1.80;;;;;;;11.09;65.98;99226.47;5017563;28;20042;-77
2022/05/20 00:45:02;;;;;;;;;;;;;;;11.10;66.47;99230.78;5032684;28;20049;-77
2022/05/20 00:47:28;;;;;;;3.13;1.63;;;;;;;11.11;66.31;99222.97;5031103;28;20019;-76
2022/05/20 00:49:54;;;;;;;;;;;;;;;11.20;65.67;99238.41;5015266;28;20438;-77
2022/05/20 00:52:22;;;;;;;3.67;1.55;;;;;;;11.13;65.61;99236.81;5030566;28;20008;-77
2022/05/20 00:54:50;;;;;;;4.72;1.80;;;;;;;11.03;65.37;99232.59;5030741;28;20033;-76
2022/05/20 00:57:19;;;;;;;2.90;1.50;;;;;;;10.89;66.16;99230.16;4994804;28;20124;-77
2022/05/20 00:59:49;;;;;;;3.13;1.70;;;;;;;10.86;66.53;99229.38;4994299;28;20041;-76
2022/05/20 01:02:16;;;;;;;3.70;2.38;;;;;;;10.88;66.62;99225.84;5017451;28;20098;-76
2022/05/20 01:04:42;;;;;;;3.10;1.90;;;;;;;10.81;66.41;99237.19;5002319;28;20030;-78
2022/05/20 01:07:07;;;;;;;;;;;;;;;10.88;66.40;99232.78;5035388;28;20494;-76
2022/05/20 01:09:35;;;;;;;3.00;1.80;;;;;;;10.66;66.49;99233.03;5018039;28;20440;-77
2022/05/20 01:12:02;;;;;;;3.47;1.60;;;;;;;10.74;66.74;99239.88;5034512;28;20523;-76
2022/05/20 01:14:27;;;;;;;2.90;1.60;;;;;;;10.68;66.45;99230.44;5018520;28;20033;-77
2022/05/20 01:16:53;;;;;;;;;;;;;;;10.75;66.98;99245.03;5018866;28;20056;-77
2022/05/20 01:19:51;;;;;;;2.50;1.67;;;;;;;10.70;67.19;99249.41;5034656;28;19924;-77
2022/05/20 01:22:45;;;;;;;2.60;1.50;;;;;;;10.71;66.78;99248.53;5016422;28;20084;-76
2022/05/20 01:25:11;;;;;;;4.22;1.90;;;;;;;10.72;67.33;99246.81;5034863;28;20051;-77
2022/05/20 01:27:42;;;;;;;;;;;;;;;10.82;66.86;99256.22;5035077;28;20026;-77
2022/05/20 01:30:11;;;;;;;3.28;1.80;;;;;;;10.62;67.22;99252.09;5034731;28;19971;-78
2022/05/20 01:32:37;;;;;;;2.33;1.60;;;;;;;10.74;66.93;99256.31;5034409;28;20064;-76
2022/05/20 01:35:03;;;;;;;;;;;;;;;10.82;66.81;99258.81;5034509;28;20112;-77
2022/05/20 01:37:29;;;;;;;2.85;1.50;;;;;;;10.61;66.77;99265.09;5020094;28;19974;-77
2022/05/20 01:39:54;;;;;;;;;;;;;;;10.76;66.66;99264.06;5017534;28;20057;-78
2022/05/20 01:42:25;;;;;;;3.00;1.60;;;;;;;10.65;66.22;99269.38;5034794;28;19924;-76
2022/05/20 01:45:02;;;;;;;4.07;1.80;;;;;;;10.60;67.70;99274.59;5035029;28;20052;-76
2022/05/20 01:47:48;;;;;;;2.85;1.50;;;;;;;10.54;66.26;99279.88;5033477;28;20082;-76
2022/05/20 01:50:24;;;;;;;3.50;2.30;;;;;;;10.47;67.14;99278.19;5034940;28;20040;-75
2022/05/20 01:53:16;;;;;;;2.73;1.83;;;;;;;10.45;67.75;99290.34;5033849;28;20128;-77
2022/05/20 01:55:48;;;;;;;7.38;1.95;;;;;;;10.36;67.97;99280.91;5015402;28;20046;-77
2022/05/20 01:58:27;;;;;;;3.05;1.80;;;;;;;10.28;67.82;99274.91;5034945;28;20037;-77
2022/05/20 02:00:55;;;;;;;3.72;1.88;;;;;;;10.24;68.64;99285.31;4999064;28;20047;-78
2022/05/20 02:03:35;;;;;;;2.85;1.80;;;;;;;10.13;69.00;99278.47;5017588;28;20047;-78
2022/05/20 02:06:27;;;;;;;5.72;2.00;;;;;;;10.18;69.14;99286.22;5027217;28;20038;-77
2022/05/20 02:09:02;;;;;;;6.57;1.90;;;;;;;10.06;69.26;99287.16;5033614;28;20389;-79
2022/05/20 02:11:34;;;;;;;3.58;1.95;;;;;;;10.19;69.59;99287.94;5032510;28;20060;-77
2022/05/20 02:14:13;;;;;;;3.95;1.92;;;;;;;10.29;68.51;99304.28;5033578;28;20049;-78
2022/05/20 02:16:41;;;;;;;4.43;1.73;;;;;;;10.29;68.25;99299.97;5016620;28;20045;-78
2022/05/20 02:19:34;;;;;;;3.95;1.80;;;;;;;10.22;68.99;99294.81;5017007;28;20087;-77
2022/05/20 02:22:00;;;;;;;4.18;1.98;;;;;;;10.19;68.25;99300.88;5031546;28;20128;-77
2022/05/20 02:24:26;;;;;;;6.50;2.08;;;;;;;10.17;68.11;99295.72;5032952;28;20558;-78
2022/05/20 02:26:58;;;;;;;3.83;1.80;;;;;;;10.24;68.83;99309.53;5032954;28;20412;-77
2022/05/20 02:29:27;;;;;;;4.53;1.80;;;;;;;10.24;68.78;99312.09;5017105;28;20124;-77
2022/05/20 02:31:54;;;;;;;3.65;2.00;;;;;;;10.29;67.73;99309.47;5024149;28;20128;-77
2022/05/20 02:34:20;;;;;;;4.95;1.92;;;;;;;10.27;67.76;99306.91;5033054;28;20526;-77
2022/05/20 02:36:45;;;;;;;;;;;;;;;10.28;68.41;99307.78;5034684;28;20034;-77
2022/05/20 02:39:17;;;;;;;2.88;1.73;;;;;;;10.25;68.10;99311.22;5020134;28;19925;-77
2022/05/20 02:41:46;;;;;;;2.60;1.67;;;;;;;10.13;68.76;99309.59;5033099;28;20033;-78
2022/05/20 02:44:13;;;;;;;2.95;1.95;;;;;;;10.23;69.09;99312.09;5016486;28;20457;-78
2022/05/20 02:46:39;;;;;;;3.33;1.80;;;;;;;10.30;68.83;99314.63;5016454;28;20041;-77
2022/05/20 02:49:05;;;;;;;;;;;;;;;10.40;68.29;99318.91;5016606;28;20038;-76
2022/05/20 02:51:30;;;;;;;3.20;1.92;;;;;;;10.31;66.97;99318.09;5032917;28;19924;-78
2022/05/20 02:53:56;;;;;;;;;;;;;;;10.39;69.51;99317.16;5023651;28;20038;-77
2022/05/20 02:56:21;;;;;;;4.22;1.70;;;;;;;10.24;67.67;99317.28;5032941;28;19963;-77
2022/05/20 03:04:16;;;;;;;3.70;2.10;;;;;;;10.23;67.80;99306.91;5032827;28;20072;-78
2022/05/20 03:06:45;;;;;;;;;;;;;;;10.31;68.53;99312.91;5013291;28;20033;-77
2022/05/20 03:09:12;;;;;;;3.42;2.25;;;;;;;10.43;68.28;99323.19;5032282;28;19916;-78
2022/05/20 03:11:40;;;;;;;3.08;1.85;;;;;;;10.43;66.89;99321.44;5026230;28;20385;-77
2022/05/20 03:14:08;;;;;;;3.97;2.10;;;;;;;10.47;67.80;99324.88;5033827;28;20048;-77
2022/05/20 03:16:34;;;;;;;4.40;2.00;;;;;;;10.40;68.09;99325.78;5033578;28;20033;-77
2022/05/20 03:19:00;;;;;;;3.08;2.17;;;;;;;10.55;67.92;99330.00;5015347;28;20124;-77
2022/05/20 03:21:25;;;;;;;;;;;;;;;10.55;67.59;99330.00;5026138;28;20476;-76
2022/05/20 03:23:51;;;;;;;3.70;2.05;;;;;;;10.37;67.90;99333.63;5032617;28;19998;-78
2022/05/20 03:26:17;;;;;;;;;;;;;;;10.49;69.07;99336.13;5033903;28;20483;-78
2022/05/20 03:28:43;;;;;;;4.00;2.28;;;;;;;10.45;67.32;99330.97;5033504;28;19917;-76
2022/05/20 03:31:10;;;;;;;3.30;2.10;;;;;;;10.49;68.39;99338.72;5033803;28;20033;-77
2022/05/20 03:33:35;;;;;;;4.53;2.50;;;;;;;10.48;66.55;99338.69;5032157;28;20061;-77
2022/05/20 03:36:01;;;;;;;;;;;;;;;10.62;67.40;99348.06;5033323;28;20065;-78
2022/05/20 03:38:27;;;;;;;3.20;2.30;;;;;;;10.75;66.49;99355.75;5033111;28;19921;-77
2022/05/20 03:40:52;;;;;;;;;;;;;;;10.87;65.91;99351.28;5033069;28;20378;-78
2022/05/20 03:43:18;;;;;;;3.60;2.58;;;;;;;10.87;66.28;99353.03;5033268;28;19916;-77
2022/05/20 03:45:43;;;;;;;;;;;;;;;11.02;66.04;99364.97;5033373;28;20036;-77
2022/05/20 03:48:09;;;;;;;4.45;2.60;;;;;;;10.88;64.24;99362.53;5032642;28;19939;-77
2022/05/20 03:50:35;;;;;;;4.20;2.30;;;;;;;10.80;65.48;99366.94;5003155;28;20033;-78
2022/05/20 03:53:01;;;;;;;;;;;;;;;10.86;64.81;99361.69;5031334;28;20041;-77
2022/05/20 03:55:27;;;;;;;6.00;3.00;;;;;;;10.68;65.05;99365.34;5032430;28;20156;-79
2022/05/20 03:57:53;;;;;;;5.78;2.80;;;;;;;10.69;66.15;99365.31;4999001;28;20518;-76
2022/05/20 04:00:18;;;;;;;;;;;;;;;10.88;66.34;99373.78;5032249;28;20033;-76
2022/05/20 04:02:44;;;;;;;4.93;3.00;;;;;;;11.01;65.05;99371.06;5018695;28;19917;-77
2022/05/20 04:05:09;;;;;;;;;;;;;;;11.06;64.43;99372.72;5030047;28;20136;-76
2022/05/20 04:07:36;;;;;;;4.47;2.85;;;;;;;10.90;64.86;99372.03;5032267;28;19916;-77
2022/05/20 04:10:02;;;;;;;;;;;;;;;10.99;66.67;99370.19;5007293;28;20117;-77
2022/05/20 04:12:32;;;;;;;4.32;3.17;;;;;;;10.82;65.07;99378.19;5032108;28;19956;-78
2022/05/20 04:14:58;;;;;;;4.68;2.92;;;;;;;10.92;64.89;99369.41;5014774;28;20535;-77
2022/05/20 04:17:24;;;;;;;;;;;;;;;10.99;64.76;99376.25;5030841;28;20123;-77
2022/05/20 04:19:50;;;;;;;5.28;3.20;;;;;;;10.88;65.16;99363.38;5014484;28;19920;-77
2022/05/20 04:22:16;;;;;;;;;;;;;;;11.03;65.45;99370.16;5031050;28;20045;-78
2022/05/20 04:24:42;;;;;;;4.47;3.20;;;;;;;10.96;64.33;99365.91;5031003;28;19920;-78
2022/05/20 04:27:07;;;;;;;;;;;;;;;10.99;64.83;99370.19;5014376;28;20041;-77
2022/05/20 04:29:33;;;;;;;5.85;3.90;;;;;;;10.87;64.46;99361.69;5032293;28;19955;-78
2022/05/20 04:31:59;;;;;;;5.57;3.13;;;;;;;10.88;65.18;99362.53;5032051;28;20041;-78
2022/05/20 04:34:25;;;;;;;;;;;;;;;11.14;63.64;99365.72;5030835;28;20033;-78
2022/05/20 04:36:51;;;;;;;4.90;3.05;;;;;;;11.08;63.34;99360.56;5028264;28;19925;-80
2022/05/20 04:39:17;;;;;;;;;;;;;;;11.07;63.74;99370.97;5031299;28;20440;-78
2022/05/20 04:47:18;;;;;;;11.43;3.47;;;;;;;11.20;63.33;99365.63;5030320;28;20041;-78
2022/05/20 04:49:43;;;;;;;8.45;3.50;;;;;;;11.35;62.20;99363.75;5014954;28;20046;-78
2022/05/20 04:52:09;;;;;;;;;;;;;;;11.44;61.78;99371.41;4998147;28;20034;-78
2022/05/20 04:54:50;;;;;;;5.30;2.90;;;;;;;11.35;62.07;99367.19;5031809;28;19917;-77
2022/05/20 04:57:20;;;;;;;7.43;3.42;;;;;;;11.24;63.39;99376.00;5030383;28;20041;-77
2022/05/20 04:59:46;;;;;;;5.85;3.30;;;;;;;11.22;62.81;99372.53;5030414;28;20033;-78
2022/05/20 05:02:12;;;;;;;;;;;;;;;11.35;62.28;99379.31;5031932;28;20041;-78
2022/05/20 05:04:38;;;;;;;4.57;3.43;;;;;;;11.18;61.11;99388.19;5030718;28;19924;-77
2022/05/20 05:07:04;;;;;;;;;;;;;;;11.18;61.20;99382.97;5032240;28;20029;-77
2022/05/20 05:09:30;;;;;;;6.45;3.85;;;;;;;11.09;61.76;99372.69;5031798;28;19968;-79
2022/05/20 05:11:55;;;;;;;;;;;;;;;11.24;62.20;99376.00;5014901;28;20492;-78
2022/05/20 05:14:21;;;;;;;5.40;3.72;;;;;;;11.12;62.28;99374.38;5032065;28;19917;-78
2022/05/20 05:16:46;;;;;;;;;;;;;;;11.12;62.23;99371.78;5015009;28;20045;-78
2022/05/20 05:19:12;;;;;;;6.65;3.67;;;;;;;10.98;62.45;99361.56;5047235;28;20346;-83
2022/05/20 05:21:38;;;;;;;;;;;;;;;11.11;63.84;99376.13;4995012;28;20121;-79
2022/05/20 05:24:04;;;;;;;5.28;3.80;;;;;;;11.17;62.54;99373.44;5021399;28;20407;-78
2022/05/20 05:26:31;;;;;;;5.93;3.60;;;;;;;11.31;62.10;99388.88;5013847;28;20029;-78
2022/05/20 05:28:57;;;;;;;7.03;4.60;;;;;;;11.40;61.39;99383.56;5030459;28;20049;-77
2022/05/20 05:31:22;;;;;;;;;;;;;;;11.66;61.21;99388.47;5031089;28;20400;-78
2022/05/20 05:33:50;;;;;;;8.18;3.88;;;;;;;11.71;59.60;99378.84;5031241;28;19924;-79
2022/05/20 05:36:16;;;;;;;6.32;3.88;;;;;;;11.79;58.84;99393.50;5026614;28;20041;-78
2022/05/20 05:38:42;;;;;;;5.78;3.70;;;;;;;11.92;58.51;99397.69;5025651;28;20048;-78
2022/05/20 05:41:08;;;;;;;;;;;;;;;11.92;59.03;99393.34;5032006;28;20050;-77
2022/05/20 05:43:34;;;;;;;5.88;3.80;;;;;;;11.97;59.08;99395.88;5030101;28;20403;-78
2022/05/20 05:45:59;;;;;;;;;;;;;;;12.24;59.35;99398.97;5031882;28;20037;-77
2022/05/20 05:48:25;;;;;;;5.93;3.95;;;;;;;12.42;57.01;99403.91;5034092;28;20423;-78
2022/05/20 05:50:50;;;;;;;;;;;;;;;12.62;56.63;99412.22;5034760;28;20040;-77
2022/05/20 05:53:18;;;;;;;8.40;3.65;;;;;;;12.50;56.34;99404.59;5033741;28;19943;-79
2022/05/20 05:55:45;;;;;;;7.03;3.20;;;;;;;12.50;56.34;99414.16;5033898;28;20056;-78
2022/05/20 05:58:11;;;;;;;5.72;3.83;;;;;;;12.45;56.26;99415.09;5034614;28;20041;-78
2022/05/20 06:00:37;;;;;;;;;;;;;;;12.51;56.45;99419.34;5025438;28;20036;-76
2022/05/20 06:03:04;;;;;;;8.35;3.78;;;;;;;12.42;57.09;99422.97;5033214;28;19916;-78
2022/05/20 06:05:30;;;;;;;6.03;3.63;;;;;;;12.35;56.38;99428.25;5034047;28;20041;-77
2022/05/20 06:07:56;;;;;;;9.20;4.13;;;;;;;12.28;55.97;99424.91;5017338;28;20095;-77
2022/05/20 06:10:22;;;;;;;;;;;;;;;12.34;56.78;99437.81;5033825;28;20026;-78
2022/05/20 06:12:49;;;;;;;8.98;3.58;;;;;;;12.25;57.28;99431.91;5033308;28;19979;-79
2022/05/20 06:15:16;;;;;;;19.40;4.07;;;;;;;12.21;56.83;99433.69;5017183;28;20037;-78
2022/05/20 06:17:43;;;;;;;9.30;3.85;;;;;;;12.25;56.01;99427.56;5007104;28;20077;-78
2022/05/20 06:20:09;;;;;;;5.13;3.33;;;;;;;12.41;55.91;99434.22;5033978;28;20479;-79
2022/05/20 06:22:35;;;;;;;6.60;4.22;;;;;;;12.66;54.88;99431.25;5034789;28;20037;-82
2022/05/20 06:25:00;;;;;;;;;;;;;;;12.88;54.41;99442.19;5033596;28;20029;-78
2022/05/20 06:27:26;;;;;;;6.03;4.50;;;;;;;13.00;53.92;99439.34;5034132;28;19967;-80
2022/05/20 06:29:52;;;;;;;;;;;;;;;13.25;53.54;99436.34;5033172;28;20437;-78
2022/05/20 06:32:18;;;;;;;10.65;6.78;;;;;;;13.33;52.85;99431.84;5034419;28;19971;-78
2022/05/20 06:40:14;;;;;;;8.68;4.68;;;;;;;13.25;51.73;99445.03;5015463;28;20512;-78
2022/05/20 06:42:40;;;;;;;8.15;3.75;;;;;;;13.39;50.83;99439.56;5032705;28;20037;-79
2022/05/20 06:45:06;;;;;;;8.20;3.60;;;;;;;13.57;50.70;99440.94;5033558;28;20061;-78
2022/05/20 06:47:32;;;;;;;7.43;3.50;;;;;;;13.81;49.62;99439.59;5032495;28;20041;-78
2022/05/20 06:49:58;;;;;;;;;;;;;;;14.08;49.47;99439.00;5016635;28;20041;-79
2022/05/20 06:52:23;;;;;;;8.07;3.30;;;;;;;14.31;47.71;99435.03;5033664;28;19916;-78
2022/05/20 06:54:49;;;;;;;;;;;;;;;14.53;46.79;99446.72;5032950;28;20041;-79
2022/05/20 06:57:18;;;;;;;6.07;2.90;;;;;;;14.45;46.74;99449.47;5033781;28;19966;-79
2022/05/20 06:59:44;;;;;;;5.22;3.10;;;;;;;14.39;47.21;99446.16;5016162;28;20045;-79
2022/05/20 07:02:09;;;;;;;;;;;;;;;14.35;46.93;99447.09;5032627;28;20435;-78
2022/05/20 07:04:35;;;;;;;4.57;3.10;;;;;;;14.18;47.98;99448.31;5034482;28;19944;-78
2022/05/20 07:07:03;;;;;;;9.57;4.13;;;;;;;14.31;47.66;99446.31;5032270;28;20040;-78
2022/05/20 07:09:29;;;;;;;6.40;3.33;;;;;;;14.56;47.15;99444.00;5033587;28;20462;-80
2022/05/20 07:11:55;;;;;;;;;;;;;;;14.77;46.42;99449.63;5032522;28;20025;-77
2022/05/20 07:14:22;;;;;;;7.60;3.40;;;;;;;14.81;46.06;99446.03;5033776;28;20015;-79
2022/05/20 07:16:48;;;;;;;5.10;3.33;;;;;;;14.81;46.26;99446.03;5012783;28;20125;-78
2022/05/20 07:19:14;;;;;;;6.03;3.40;;;;;;;14.77;46.37;99449.63;5025987;28;20412;-82
2022/05/20 07:21:39;;;;;;;9.60;3.60;;;;;;;14.73;46.46;99447.06;5013379;28;20047;-78
2022/05/20 07:24:06;;;;;;;4.20;3.28;;;;;;;14.69;46.32;99452.41;5012713;28;20041;-77
2022/05/20 07:26:31;;;;;;;6.32;3.03;;;;;;;14.67;45.59;99456.81;5028038;28;20116;-79
2022/05/20 07:28:57;;;;;;;4.00;2.63;;;;;;;14.63;45.60;99450.81;5016019;28;20192;-83
2022/05/20 07:31:24;;;;;;;;;;;;;;;14.76;45.69;99463.59;5016209;28;20036;-78
2022/05/20 07:33:53;;;;;;;4.50;2.70;;;;;;;14.86;46.01;99454.63;5031468;28;20304;-79
2022/05/20 07:36:19;;;;;;;4.65;2.50;;;;;;;15.12;42.77;99444.38;5011892;28;20049;-79
2022/05/20 07:38:45;;;;;;;10.43;6.65;;;;;;;15.50;41.82;99447.72;4995103;28;20064;-80
2022/05/20 07:41:11;;;;;;;4.38;3.10;;;;;;;15.96;40.79;99438.59;5015478;28;20080;-83
2022/05/20 07:43:38;;;;;;;5.28;3.10;;;;;;;16.48;40.24;99440.44;5032078;28;20103;-77
2022/05/20 07:46:04;;;;;;;4.07;2.70;;;;;;;16.84;39.17;99441.97;5015217;28;20037;-79
2022/05/20 07:48:30;;;;;;;5.72;3.60;;;;;;;16.65;39.33;99429.44;5015089;28;20041;-83
2022/05/20 07:51:00;;;;;;;3.75;2.83;;;;;;;16.74;39.22;99442.28;5013069;28;20033;-80
2022/05/20 07:53:35;;;;;;;4.57;2.88;;;;;;;16.65;39.12;99447.78;5003605;28;20041;-78
2022/05/20 07:56:19;;;;;;;4.65;2.47;;;;;;;17.03;38.34;99445.69;5030683;28;20134;-78
2022/05/20 07:58:59;;;;;;;3.63;2.22;;;;;;;17.34;36.79;99448.09;5014535;28;20420;-78
2022/05/20 08:01:27;;;;;;;3.55;2.22;;;;;;;17.35;36.07;99444.56;5031266;28;20160;-78
2022/05/20 08:06:56;;;;;;;4.80;2.55;;;;;;;17.09;36.23;99448.09;5031702;28;20127;-78
2022/05/20 08:09:21;;;;;;;2.47;2.25;;;;;;;16.88;36.89;99433.09;5010328;28;20088;-78
2022/05/20 08:11:48;;;;;;;3.30;2.47;;;;;;;16.79;37.14;99431.63;5031070;28;20500;-79
2022/05/20 08:14:13;;;;;;;3.38;2.10;;;;;;;16.74;36.55;99439.66;5031042;28;20369;-80
2022/05/20 08:16:39;;;;;;;3.53;2.25;;;;;;;16.56;36.37;99437.59;5032381;28;20045;-77
2022/05/20 08:19:05;;;;;;;4.93;2.30;;;;;;;16.53;36.49;99448.16;5030878;28;20037;-78
2022/05/20 08:21:31;;;;;;;6.85;2.10;;;;;;;16.92;36.91;99445.19;5032025;28;20066;-79
2022/05/20 08:23:57;;;;;;;6.10;2.35;;;;;;;17.42;35.58;99434.72;5032402;28;20083;-78
2022/05/20 08:26:22;;;;;;;5.22;2.20;;;;;;;17.98;33.68;99432.66;5009872;28;20038;-79
2022/05/20 08:28:48;;;;;;;4.57;2.30;;;;;;;18.28;32.88;99433.28;5030879;28;20044;-77
2022/05/20 08:31:15;;;;;;;3.00;2.30;;;;;;;18.43;33.26;99426.56;5014164;28;20404;-78
2022/05/20 08:33:40;;;;;;;3.85;2.00;;;;;;;18.62;32.20;99426.66;5014048;28;20030;-80
2022/05/20 08:36:06;;;;;;;3.08;1.60;;;;;;;18.83;33.38;99429.34;5020211;28;20463;-77
2022/05/20 08:38:32;;;;;;;7.30;1.58;;;;;;;18.59;30.62;99431.19;5025523;28;20030;-78
2022/05/20 08:40:58;;;;;;;3.13;1.67;;;;;;;18.33;31.11;99430.47;5032356;28;20052;-79
2022/05/20 08:43:29;;;;;;;4.50;1.80;;;;;;;18.17;33.44;99429.34;5020343;28;20049;-79
2022/05/20 08:45:56;;;;;;;2.90;1.60;;;;;;;17.89;32.41;99430.38;4994828;28;20038;-77
2022/05/20 08:48:22;;;;;;;3.63;1.60;;;;;;;17.61;32.26;99435.78;5023950;28;20095;-78
2022/05/20 08:50:50;;;;;;;3.00;1.60;;;;;;;17.31;32.84;99429.84;5032013;28;20042;-79
2022/05/20 08:53:26;;;;;;;3.17;1.70;;;;;;;17.17;33.21;99424.22;4994926;28;20060;-78
2022/05/20 08:55:52;;;;;;;4.30;1.70;;;;;;;17.66;32.10;99418.09;4997909;28;20099;-79
2022/05/20 08:58:21;;;;;;;4.15;1.60;;;;;;;18.22;31.62;99417.72;5031428;28;20037;-78
2022/05/20 09:00:47;;;;;;;2.65;1.58;;;;;;;18.86;29.81;99419.56;5032098;28;20037;-79
2022/05/20 09:03:12;;;;;;;1.88;1.35;;;;;;;19.41;28.78;99403.19;5008967;28;20041;-79
2022/05/20 09:05:40;;;;;;;2.35;1.25;;;;;;;19.70;28.47;99402.78;5011171;28;20084;-79
2022/05/20 09:08:17;;;;;;;3.78;1.60;;;;;;;20.33;29.55;99396.31;5028189;28;20090;-78
2022/05/20 09:10:44;;;;;;;2.00;1.50;;;;;;;20.81;27.14;99399.22;5032311;28;20034;-80
2022/05/20 09:16:19;;;;;;;3.45;1.60;;;;;;;20.46;27.05;99405.34;5032051;28;20041;-80
2022/05/20 09:18:50;;;;;;;1.88;1.20;;;;;;;19.97;27.25;99399.78;4994589;28;20115;-79
2022/05/20 09:21:26;;;;;;;3.33;1.88;;;;;;;19.94;27.28;99399.94;5025336;28;20489;-79
2022/05/20 09:23:54;;;;;;;3.30;1.38;;;;;;;20.39;27.34;99402.16;5014990;28;20103;-83
2022/05/20 09:26:22;;;;;;;4.25;2.13;;;;;;;20.99;26.95;99401.88;5025215;28;20036;-79
2022/05/20 09:29:03;;;;;;;2.65;1.50;;;;;;;21.60;25.50;99397.84;5017830;28;20041;-79
2022/05/20 09:32:00;;;;;;;2.20;1.48;;;;;;;21.92;26.64;99394.31;5035708;28;20029;-80
2022/05/20 09:34:26;;;;;;;3.17;1.52;;;;;;;22.55;24.61;99394.31;5026924;28;20057;-79
2022/05/20 09:37:00;;;;;;;4.90;1.70;;;;;;;22.40;23.54;99404.88;5035529;28;20033;-80
2022/05/20 09:39:34;;;;;;;2.38;1.27;;;;;;;21.93;25.09;99416.28;5020505;28;20049;-79
2022/05/20 09:42:07;;;;;;;2.00;1.27;;;;;;;21.41;24.86;99409.38;5018114;28;20060;-80
2022/05/20 09:44:37;;;;;;;4.63;1.50;;;;;;;21.39;24.18;99415.66;5034422;28;20566;-79
2022/05/20 09:47:25;;;;;;;2.20;1.50;;;;;;;22.41;23.86;99417.19;5033895;28;20043;-78
2022/05/20 09:49:57;;;;;;;2.67;1.48;;;;;;;23.58;22.89;99417.31;5035290;28;20521;-80
2022/05/20 09:52:30;;;;;;;2.78;1.30;;;;;;;24.42;21.32;99411.19;5034075;28;20475;-79
2022/05/20 09:55:12;;;;;;;2.95;1.48;;;;;;;24.72;21.66;99405.69;5020747;28;20037;-79
2022/05/20 09:57:42;;;;;;;3.00;1.30;;;;;;;24.11;21.59;99405.19;5035294;28;20049;-79
2022/05/20 10:00:35;;;;;;;2.50;1.10;;;;;;;23.67;22.66;99414.13;5033866;28;20566;-79
2022/05/20 10:03:13;;;;;;;4.88;1.30;;;;;;;24.34;20.88;99403.72;5033952;28;20100;-79
2022/05/20 10:05:47;;;;;;;9.55;1.38;;;;;;;24.15;21.91;99404.06;4981539;28;20038;-78
2022/05/20 10:08:32;;;;;;;3.42;1.15;;;;;;;23.52;21.35;99404.47;4999254;28;20076;-80
2022/05/20 10:11:10;;;;;;;4.47;1.30;;;;;;;22.73;22.39;99396.81;5034727;28;20044;-80
2022/05/20 10:13:35;;;;;;;4.85;1.70;;;;;;;22.33;23.54;99399.94;5034676;28;20040;-80
2022/05/20 10:16:17;;;;;;;2.70;1.80;;;;;;;22.96;23.87;99393.72;5034684;28;20033;-78
2022/05/20 10:18:58;;;;;;;3.92;1.30;;;;;;;23.04;22.93;99388.78;5033650;28;20041;-80
2022/05/20 10:21:45;;;;;;;2.30;1.23;;;;;;;23.42;22.83;99387.44;5033520;28;20041;-79
2022/05/20 10:24:38;;;;;;;5.78;1.92;;;;;;;23.85;21.83;99380.34;5017392;28;20179;-79
2022/05/20 10:27:21;;;;;;;2.78;1.20;;;;;;;23.66;21.89;99383.31;5028333;28;20061;-79
2022/05/20 10:33:06;;;;;;;1.73;1.03;;;;;;;23.70;23.16;99384.81;5033633;28;20132;-79
2022/05/20 10:36:07;;;;;;;2.22;1.00;;;;;;;24.16;22.45;99371.28;5012968;28;20280;-78
2022/05/20 10:38:44;;;;;;;2.83;0.98;;;;;;;24.54;19.54;99357.34;5028993;28;20037;-80
2022/05/20 10:41:36;;;;;;;1.45;0.80;;;;;;;24.67;21.03;99360.03;5013443;28;20459;-79
2022/05/20 10:50:28;;;;;;;3.67;1.20;;;;;;;25.95;19.60;99360.91;5032750;28;20060;-79
2022/05/20 10:53:18;;;;;;;4.38;0.98;;;;;;;26.46;18.53;99358.06;5016288;28;20049;-79
2022/05/20 10:56:25;;;;;;;2.17;1.10;;;;;;;26.71;18.31;99344.63;5034209;28;20041;-80
2022/05/20 10:59:10;;;;;;;1.88;1.10;;;;;;;26.23;18.75;99352.59;5001054;28;20053;-79
2022/05/20 11:01:58;;;;;;;3.35;1.15;;;;;;;24.98;19.12;99348.22;5026237;28;20405;-80
2022/05/20 11:04:30;;;;;;;2.78;1.60;;;;;;;23.78;20.36;99344.63;5016283;28;20045;-79
2022/05/20 11:07:01;;;;;;;4.90;1.58;;;;;;;23.26;21.57;99340.72;5007727;28;20045;-80
2022/05/20 11:09:47;;;;;;;3.55;0.90;;;;;;;22.77;21.90;99338.38;5032719;28;20045;-80
2022/05/20 11:12:52;;;;;;;1.30;0.90;;;;;;;23.00;22.39;99337.03;5029203;28;20048;-77
2022/05/20 11:15:33;;;;;;;3.10;1.10;;;;;;;23.72;20.81;99332.59;4998779;28;20057;-80
2022/05/20 11:18:23;;;;;;;1.73;0.98;;;;;;;24.51;20.56;99325.72;5032177;28;20451;-80
2022/05/20 11:21:28;;;;;;;4.25;2.53;;;;;;;25.15;19.45;99318.72;5033261;28;20044;-78
2022/05/20 11:24:19;;;;;;;1.17;0.80;;;;;;;25.81;19.21;99316.72;5023848;28;20128;-79
2022/05/20 11:27:17;;;;;;;1.58;0.57;;;;;;;26.95;19.31;99309.13;5032199;28;20037;-79
2022/05/20 11:29:54;;;;;;;1.30;0.95;;;;;;;27.71;16.58;99319.06;5023733;28;20041;-79
2022/05/20 11:32:53;;;;;;;3.72;1.33;;;;;;;28.38;16.54;99327.91;4998461;28;20042;-80
2022/05/20 11:35:43;;;;;;;1.33;0.70;;;;;;;28.24;16.04;99319.22;5028590;28;20088;-79
2022/05/20 11:38:28;;;;;;;1.45;0.70;;;;;;;28.43;16.22;99309.72;5031692;28;20048;-80
2022/05/20 11:41:04;;;;;;;1.30;0.90;;;;;;;28.32;16.07;99307.91;5010841;28;20054;-82
2022/05/20 11:43:36;;;;;;;1.30;0.90;;;;;;;28.69;16.23;99303.03;5024116;28;20412;-80
2022/05/20 11:46:24;;;;;;;1.60;0.82;;;;;;;28.95;15.64;99299.94;5031353;28;20044;-79
2022/05/20 11:49:02;;;;;;;1.40;0.90;;;;;;;29.03;16.00;99298.31;5032901;28;20080;-80
2022/05/20 11:51:37;;;;;;;1.40;1.00;;;;;;;29.03;15.96;99302.81;5033161;28;20445;-80
2022/05/20 11:54:11;;;;;;;2.42;0.77;;;;;;;29.19;14.76;99300.53;5031971;28;20041;-80
2022/05/20 11:57:04;;;;;;;2.28;1.20;;;;;;;29.38;15.55;99299.78;5009710;28;20050;-79
2022/05/20 11:59:48;;;;;;;8.48;1.08;;;;;;;29.83;14.16;99294.03;5009423;28;20081;-81
2022/05/20 12:02:14;;;;;;;2.05;0.82;;;;;;;29.58;14.89;99285.50;5032708;28;20065;-80
2022/05/20 12:04:40;;;;;;;2.05;1.05;;;;;;;29.30;15.15;99287.06;5002069;28;20448;-81
2022/05/20 12:07:07;;;;;;;1.95;1.00;;;;;;;29.16;15.88;99281.25;5015378;28;20195;-80
2022/05/20 12:09:42;;;;;;;1.45;0.80;;;;;;;29.65;15.73;99282.31;5031945;28;20037;-82
2022/05/20 12:12:25;;;;;;;1.70;0.70;;;;;;;29.15;14.94;99275.06;5032889;28;20064;-78
2022/05/20 12:15:08;;;;;;;3.75;0.60;;;;;;;28.35;15.55;99279.16;5032522;28;20083;-79
2022/05/20 12:17:40;;;;;;;2.83;0.75;;;;;;;28.18;17.33;99261.06;5031246;28;20048;-78
2022/05/20 12:25:53;;;;;;;1.58;0.82;;;;;;;27.66;15.85;99256.44;5033243;28;20045;-78
2022/05/20 12:28:21;;;;;;;1.85;0.90;;;;;;;26.74;17.42;99256.56;5005496;28;20385;-80
2022/05/20 12:31:44;;;;;;;2.78;0.70;;;;;;;26.98;17.63;99259.13;5031315;28;20037;-80
2022/05/20 12:34:37;;;;;;;2.08;0.70;;;;;;;27.36;17.74;99260.63;4994051;28;20042;-79
2022/05/20 12:37:03;;;;;;;2.25;1.05;;;;;;;27.03;16.66;99242.78;5011012;28;20659;-82
2022/05/20 12:39:49;;;;;;;1.65;1.00;;;;;;;26.70;17.21;99247.13;4995183;28;20140;-78
2022/05/20 12:42:26;;;;;;;4.93;1.00;;;;;;;26.64;17.65;99247.59;5025847;28;20053;-78